Time;durP1;ratioP1;P1;durP2;ratioP2;P2;SDS_P1;SDS_P2;PMS_P1;PMS_P2;Temp;Humidity;BMP_temperature;BMP_pressure;BME280_temperature;BME280_humidity;BME280_pressure;Samples;Min_cycle;Max_cycle;Signal;HPM_P1;HPM_P2
2022/11/02 00:00:28;;;;;;;2.72;0.98;;;18.20;87.90;;;;;;4927870;29;20036;-73
2022/11/02 00:02:54;;;;;;;3.25;1.13;;;18.20;88.20;;;;;;4928094;29;20040;-76
2022/11/02 00:05:23;;;;;;;4.03;1.00;;;18.20;87.80;;;;;;4927752;29;20027;-76
2022/11/02 00:07:50;;;;;;;4.50;1.17;;;18.20;88.00;;;;;;4927358;29;20042;-76
2022/11/02 00:10:15;;;;;;;3.88;0.90;;;18.20;87.50;;;;;;4925262;29;20409;-77
2022/11/02 00:12:41;;;;;;;4.82;1.20;;;18.20;87.80;;;;;;4927476;29;20032;-76
2022/11/02 00:15:07;;;;;;;3.55;1.05;;;18.20;87.90;;;;;;4925652;29;20035;-76
2022/11/02 00:17:34;;;;;;;3.83;1.02;;;18.20;89.00;;;;;;4928073;29;20354;-76
2022/11/02 00:20:01;;;;;;;4.30;0.90;;;18.20;88.80;;;;;;4910577;29;20054;-76
2022/11/02 00:22:26;;;;;;;4.82;1.00;;;18.10;88.10;;;;;;4926026;29;20035;-76
2022/11/02 00:24:52;;;;;;;3.45;1.10;;;18.10;88.90;;;;;;4928137;29;20034;-76
2022/11/02 00:27:18;;;;;;;3.40;0.90;;;18.10;89.00;;;;;;4926646;29;20024;-76
2022/11/02 00:29:43;;;;;;;2.92;0.90;;;18.10;89.40;;;;;;4910731;29;20671;-76
2022/11/02 00:32:09;;;;;;;2.10;0.90;;;18.10;88.70;;;;;;4910638;29;20710;-75
2022/11/02 00:34:34;;;;;;;4.43;0.93;;;18.20;88.10;;;;;;4928194;29;20513;-76
2022/11/02 00:37:00;;;;;;;4.07;1.15;;;18.20;88.00;;;;;;4927820;29;20584;-75
2022/11/02 00:39:25;;;;;;;3.50;0.80;;;18.20;87.70;;;;;;4927661;29;20031;-76
2022/11/02 00:41:51;;;;;;;4.60;1.00;;;18.20;87.70;;;;;;4911669;29;20028;-76
2022/11/02 00:44:17;;;;;;;4.05;0.98;;;18.20;87.10;;;;;;4907626;29;20036;-76
2022/11/02 00:46:42;;;;;;;3.72;1.08;;;18.20;87.80;;;;;;4908127;29;20035;-77
2022/11/02 00:49:08;;;;;;;3.88;1.10;;;18.20;87.40;;;;;;4908795;29;20024;-75
2022/11/02 00:51:33;;;;;;;3.80;1.33;;;18.20;87.40;;;;;;4908814;29;20376;-75
2022/11/02 00:53:59;;;;;;;2.70;0.82;;;18.10;87.50;;;;;;4907345;29;20167;-75
2022/11/02 00:56:24;;;;;;;3.28;1.13;;;18.10;88.30;;;;;;4921079;29;20078;-76
2022/11/02 00:58:50;;;;;;;4.85;1.25;;;18.20;88.60;;;;;;4925437;29;20632;-76
2022/11/02 01:01:15;;;;;;;3.55;1.13;;;18.10;88.30;;;;;;4909282;29;20122;-75
2022/11/02 01:03:41;;;;;;;3.80;1.13;;;18.10;88.70;;;;;;4926768;29;20253;-76
2022/11/02 01:06:09;;;;;;;3.28;0.90;;;18.10;88.70;;;;;;4910203;29;20386;-76
2022/11/02 01:08:35;;;;;;;2.58;0.85;;;18.10;88.90;;;;;;4902219;29;20087;-76
2022/11/02 01:11:19;;;;;;;3.67;1.02;;;18.10;89.10;;;;;;4927157;29;20020;-76
2022/11/02 01:13:45;;;;;;;3.92;1.00;;;18.10;88.60;;;;;;4924743;29;20111;-77
2022/11/02 01:16:12;;;;;;;3.70;0.80;;;18.10;87.70;;;;;;4925392;29;20122;-75
2022/11/02 01:18:38;;;;;;;2.25;0.80;;;18.10;87.90;;;;;;4926819;29;20181;-76
2022/11/02 01:21:04;;;;;;;4.13;1.00;;;18.10;88.00;;;;;;4925179;29;20036;-77
2022/11/02 01:23:33;;;;;;;4.25;1.15;;;18.10;88.10;;;;;;4926431;29;21046;-76
2022/11/02 01:26:08;;;;;;;4.15;1.23;;;18.10;87.70;;;;;;4925738;29;20039;-77
2022/11/02 01:28:34;;;;;;;4.10;1.05;;;18.10;88.30;;;;;;4925596;29;20055;-76
2022/11/02 01:31:00;;;;;;;4.13;1.02;;;18.10;88.00;;;;;;4925112;29;20050;-77
2022/11/02 01:33:26;;;;;;;3.70;1.00;;;18.10;88.00;;;;;;4927182;29;20514;-75
2022/11/02 01:35:53;;;;;;;2.83;0.85;;;18.10;88.50;;;;;;4926552;29;20040;-76
2022/11/02 01:38:19;;;;;;;4.13;0.90;;;18.10;88.90;;;;;;4926802;29;20118;-77
2022/11/02 01:40:44;;;;;;;3.95;0.95;;;18.10;88.80;;;;;;4926354;29;20652;-75
2022/11/02 01:43:24;;;;;;;3.58;0.80;;;18.10;88.90;;;;;;4926122;29;20035;-76
2022/11/02 01:45:55;;;;;;;3.75;0.98;;;18.10;89.00;;;;;;4909760;29;20055;-76
2022/11/02 01:48:31;;;;;;;4.10;0.90;;;18.00;89.00;;;;;;4904785;29;20399;-77
2022/11/02 01:51:00;;;;;;;3.92;1.17;;;18.00;89.00;;;;;;4926250;29;20031;-77
2022/11/02 01:53:25;;;;;;;3.40;0.90;;;18.00;89.10;;;;;;4924134;29;20030;-75
2022/11/02 01:55:51;;;;;;;3.38;0.95;;;18.00;89.00;;;;;;4928002;29;20032;-75
2022/11/02 01:58:17;;;;;;;2.90;0.90;;;18.10;88.40;;;;;;4935688;29;20059;-76
2022/11/02 02:00:42;;;;;;;4.90;1.05;;;18.00;88.20;;;;;;4930638;29;20369;-76
2022/11/02 02:03:11;;;;;;;4.78;1.02;;;18.10;88.20;;;;;;4929609;29;20569;-76
2022/11/02 02:05:44;;;;;;;2.75;0.80;;;18.10;88.20;;;;;;4928734;29;20070;-77
2022/11/02 02:08:12;;;;;;;4.30;1.63;;;18.10;87.90;;;;;;4928973;29;20617;-76
2022/11/02 02:10:37;;;;;;;2.92;1.10;;;18.10;87.30;;;;;;4928907;29;20040;-76
2022/11/02 02:13:05;;;;;;;1.63;0.70;;;18.10;88.50;;;;;;4929848;29;20035;-76
2022/11/02 02:15:41;;;;;;;3.15;0.82;;;18.00;88.00;;;;;;4929595;29;20047;-76
2022/11/02 02:18:30;;;;;;;3.97;0.95;;;18.00;88.40;;;;;;4928334;29;20036;-76
2022/11/02 02:21:16;;;;;;;3.35;0.90;;;18.00;88.70;;;;;;4929344;29;20036;-77
2022/11/02 02:24:09;;;;;;;2.92;0.90;;;18.00;88.90;;;;;;4916425;29;20195;-76
2022/11/02 02:26:41;;;;;;;3.03;0.90;;;18.00;88.90;;;;;;4923867;29;20051;-76
2022/11/02 02:29:17;;;;;;;3.03;0.90;;;18.00;89.00;;;;;;4928031;29;20035;-76
2022/11/02 02:32:04;;;;;;;3.58;1.02;;;18.00;89.10;;;;;;4929963;29;20157;-76
2022/11/02 02:34:40;;;;;;;3.03;0.80;;;18.00;89.20;;;;;;4928635;29;20066;-77
2022/11/02 02:37:10;;;;;;;2.90;0.80;;;18.00;89.30;;;;;;4923992;29;20070;-76
2022/11/02 02:39:40;;;;;;;3.45;1.08;;;18.00;89.20;;;;;;4923554;29;20071;-76
2022/11/02 02:42:18;;;;;;;4.22;1.00;;;18.00;88.70;;;;;;4928631;29;20046;-77
2022/11/02 02:44:57;;;;;;;4.13;1.00;;;18.00;88.00;;;;;;4927487;29;20039;-76
2022/11/02 02:47:28;;;;;;;4.00;1.00;;;18.10;88.20;;;;;;4927978;29;20042;-76
2022/11/02 02:50:02;;;;;;;2.20;0.80;;;18.10;88.30;;;;;;4929235;29;20034;-76
2022/11/02 02:52:29;;;;;;;4.53;0.77;;;18.10;88.10;;;;;;4912356;29;20133;-75
2022/11/02 02:54:58;;;;;;;4.05;1.00;;;18.00;88.10;;;;;;4927720;29;20161;-76
2022/11/02 02:57:27;;;;;;;2.83;1.20;;;18.00;87.70;;;;;;4927552;29;20197;-76
2022/11/02 02:59:53;;;;;;;4.18;0.90;;;18.00;87.90;;;;;;4929150;29;20040;-75
2022/11/02 03:02:21;;;;;;;3.05;0.88;;;17.90;87.90;;;;;;4927793;29;20282;-76
2022/11/02 03:04:47;;;;;;;2.05;0.80;;;18.00;88.60;;;;;;4929442;29;20035;-75
2022/11/02 03:07:19;;;;;;;2.53;0.90;;;18.00;88.90;;;;;;4927327;29;20024;-76
2022/11/02 03:10:13;;;;;;;3.42;1.15;;;18.00;89.10;;;;;;4928015;29;20024;-76
2022/11/02 03:12:50;;;;;;;3.00;0.90;;;17.90;88.90;;;;;;4929495;29;20528;-76
2022/11/02 03:15:39;;;;;;;3.38;0.93;;;17.90;89.10;;;;;;4929870;29;20051;-77
2022/11/02 03:18:17;;;;;;;3.10;0.90;;;17.90;89.20;;;;;;4912249;29;20043;-76
2022/11/02 03:20:48;;;;;;;4.03;0.93;;;18.00;89.30;;;;;;4910149;29;20036;-76
2022/11/02 03:23:13;;;;;;;2.95;0.73;;;18.00;88.80;;;;;;4910447;29;20403;-76
2022/11/02 03:25:58;;;;;;;4.30;1.30;;;18.00;88.70;;;;;;4927319;29;20035;-76
2022/11/02 03:28:41;;;;;;;4.85;1.17;;;18.00;88.10;;;;;;4922444;29;20941;-76
2022/11/02 03:31:14;;;;;;;3.10;1.10;;;18.00;87.90;;;;;;4910037;29;20038;-77
2022/11/02 03:34:06;;;;;;;3.08;0.85;;;18.00;88.10;;;;;;4928135;29;20023;-76
2022/11/02 03:36:43;;;;;;;3.83;0.90;;;18.00;88.00;;;;;;4924812;29;20032;-76
2022/11/02 03:39:12;;;;;;;5.03;1.10;;;18.00;88.00;;;;;;4911189;29;20034;-77
2022/11/02 03:41:42;;;;;;;4.50;1.17;;;18.00;88.20;;;;;;4911190;29;20035;-77
2022/11/02 03:44:16;;;;;;;4.25;0.90;;;18.00;88.50;;;;;;4927634;29;20035;-76
2022/11/02 03:46:43;;;;;;;3.58;1.02;;;17.90;88.60;;;;;;4926260;29;20036;-76
2022/11/02 03:49:13;;;;;;;2.60;0.90;;;17.90;88.80;;;;;;4927832;29;20050;-76
2022/11/02 03:51:42;;;;;;;2.70;0.70;;;17.90;89.00;;;;;;4910953;29;20024;-77
2022/11/02 03:54:14;;;;;;;3.15;0.88;;;17.90;89.10;;;;;;4927700;29;20374;-76
2022/11/02 03:56:45;;;;;;;4.47;0.85;;;17.90;89.00;;;;;;4927793;29;20028;-77
2022/11/02 03:59:12;;;;;;;2.90;1.00;;;17.90;89.10;;;;;;4926674;29;20075;-76
2022/11/02 04:01:49;;;;;;;3.47;0.95;;;17.90;89.20;;;;;;4927808;29;20036;-76
2022/11/02 04:04:15;;;;;;;3.28;0.90;;;17.90;89.20;;;;;;4925902;29;20035;-76
2022/11/02 04:06:43;;;;;;;3.08;0.90;;;17.90;88.80;;;;;;4924489;29;20412;-76
2022/11/02 04:09:09;;;;;;;3.83;1.13;;;17.90;88.60;;;;;;4928089;29;20027;-77
2022/11/02 04:14:37;;;;;;;2.65;0.90;;;18.00;88.00;;;;;;4927617;29;20410;-76
2022/11/02 04:19:55;;;;;;;3.35;0.93;;;18.00;88.40;;;;;;4925427;29;20046;-76
2022/11/02 04:25:18;;;;;;;3.85;1.00;;;17.90;88.40;;;;;;4927661;29;20508;-76
2022/11/02 04:27:49;;;;;;;2.75;0.90;;;17.90;88.30;;;;;;4928176;29;20103;-76
2022/11/02 04:30:20;;;;;;;2.38;0.80;;;17.90;88.30;;;;;;4928566;29;20156;-76
2022/11/02 04:35:32;;;;;;;2.85;0.80;;;17.90;89.00;;;;;;4928393;29;20074;-76
2022/11/02 04:40:44;;;;;;;3.55;0.95;;;17.90;88.90;;;;;;4928101;29;20063;-76
2022/11/02 04:43:09;;;;;;;3.58;0.95;;;17.90;88.90;;;;;;4926794;29;20660;-76
2022/11/02 04:45:36;;;;;;;2.72;0.90;;;17.90;89.20;;;;;;4928614;29;20043;-76
2022/11/02 04:48:03;;;;;;;2.75;0.73;;;17.90;89.40;;;;;;4911756;29;20031;-76
2022/11/02 04:50:29;;;;;;;2.63;0.90;;;17.90;89.20;;;;;;4928462;29;20051;-76
2022/11/02 04:52:59;;;;;;;2.17;0.77;;;17.90;89.10;;;;;;4919657;29;20052;-76
2022/11/02 04:55:26;;;;;;;3.88;1.00;;;17.90;88.20;;;;;;4933564;29;20028;-75
2022/11/02 04:57:52;;;;;;;2.20;0.70;;;18.00;88.10;;;;;;4945405;29;20039;-76
2022/11/02 05:00:19;;;;;;;4.15;1.05;;;18.00;88.40;;;;;;4932626;29;20028;-76
2022/11/02 05:02:49;;;;;;;4.50;1.10;;;17.90;88.40;;;;;;4925331;29;20074;-76
2022/11/02 05:05:15;;;;;;;3.58;0.82;;;18.10;87.90;;;;;;4919123;29;20106;-81
2022/11/02 05:07:41;;;;;;;3.45;0.80;;;17.90;88.10;;;;;;4930107;29;20762;-75
2022/11/02 05:10:08;;;;;;;2.90;0.98;;;17.90;88.00;;;;;;4926163;29;20445;-77
2022/11/02 05:12:33;;;;;;;3.67;1.00;;;17.90;88.10;;;;;;4926438;29;20023;-76
2022/11/02 05:14:59;;;;;;;3.03;0.85;;;17.90;88.30;;;;;;4930544;29;20086;-76
2022/11/02 05:17:25;;;;;;;3.00;0.80;;;17.90;88.90;;;;;;4926414;29;20031;-75
2022/11/02 05:19:50;;;;;;;3.38;0.90;;;17.80;89.00;;;;;;4925818;29;20043;-76
2022/11/02 05:22:16;;;;;;;2.10;0.70;;;17.90;89.20;;;;;;4927126;29;20095;-74
2022/11/02 05:24:41;;;;;;;2.85;0.80;;;17.90;89.20;;;;;;4908415;29;20043;-74
2022/11/02 05:27:08;;;;;;;4.97;1.00;;;17.90;89.30;;;;;;4926804;29;20024;-75
2022/11/02 05:29:34;;;;;;;3.17;0.90;;;17.80;89.20;;;;;;4922175;29;20781;-74
2022/11/02 05:32:00;;;;;;;4.00;1.02;;;17.80;89.20;;;;;;4928042;29;20051;-75
2022/11/02 05:34:25;;;;;;;3.20;0.80;;;17.90;89.30;;;;;;4913054;29;20497;-74
2022/11/02 05:36:51;;;;;;;2.90;0.82;;;17.90;89.20;;;;;;4928319;29;20490;-75
2022/11/02 05:39:16;;;;;;;3.58;0.90;;;17.90;89.10;;;;;;4929539;29;20457;-74
2022/11/02 05:41:42;;;;;;;2.92;0.80;;;17.90;88.80;;;;;;4910379;29;20489;-75
2022/11/02 05:44:07;;;;;;;3.22;0.90;;;17.90;88.20;;;;;;4930565;29;20046;-75
2022/11/02 05:46:33;;;;;;;2.90;0.90;;;17.90;88.60;;;;;;4925512;29;20038;-76
2022/11/02 05:48:58;;;;;;;3.13;0.90;;;18.00;88.40;;;;;;4932509;29;20028;-73
2022/11/02 05:51:24;;;;;;;2.78;0.90;;;17.90;88.30;;;;;;4929372;29;20482;-74
2022/11/02 05:53:49;;;;;;;21.90;2.45;;;18.00;88.70;;;;;;4928848;29;20075;-73
2022/11/02 05:56:15;;;;;;;4.97;1.17;;;17.90;88.20;;;;;;4929497;29;20099;-73
2022/11/02 05:58:40;;;;;;;7.00;1.13;;;17.90;88.10;;;;;;4928660;29;20098;-76
2022/11/02 06:01:07;;;;;;;9.70;1.52;;;17.90;88.10;;;;;;4930915;29;20182;-77
2022/11/02 06:03:33;;;;;;;14.23;2.00;;;17.90;87.50;;;;;;4912038;29;20066;-75
2022/11/02 06:06:04;;;;;;;16.17;1.90;;;17.90;88.50;;;;;;4925298;29;20027;-74
2022/11/02 06:08:34;;;;;;;14.93;2.10;;;17.80;88.60;;;;;;4928404;29;20450;-75
2022/11/02 06:11:11;;;;;;;14.10;2.03;;;17.80;88.50;;;;;;4910242;29;20087;-75
2022/11/02 06:13:37;;;;;;;12.93;1.70;;;17.90;88.80;;;;;;4925259;29;20086;-74
2022/11/02 06:16:06;;;;;;;10.82;1.90;;;17.80;88.80;;;;;;4929977;29;20107;-73
2022/11/02 06:18:32;;;;;;;13.55;1.70;;;17.80;88.80;;;;;;4929938;29;20035;-71
2022/11/02 06:20:57;;;;;;;9.02;1.50;;;17.80;89.00;;;;;;4929120;29;20047;-74
2022/11/02 06:23:24;;;;;;;10.80;1.58;;;17.80;88.90;;;;;;4929053;29;20038;-72
2022/11/02 06:25:55;;;;;;;15.30;2.28;;;17.80;89.00;;;;;;4928358;29;20035;-74
2022/11/02 06:28:21;;;;;;;11.63;1.73;;;17.80;88.30;;;;;;4927991;29;20027;-73
2022/11/02 06:30:48;;;;;;;8.65;1.20;;;17.80;88.10;;;;;;4929466;29;20032;-74
2022/11/02 06:33:14;;;;;;;9.02;1.13;;;17.90;88.00;;;;;;4944369;29;20020;-73
2022/11/02 06:35:42;;;;;;;6.45;1.38;;;17.90;87.80;;;;;;4938029;29;20032;-72
2022/11/02 06:38:08;;;;;;;8.07;1.63;;;17.90;88.00;;;;;;4927080;29;20031;-73
2022/11/02 06:40:33;;;;;;;9.20;1.27;;;17.90;88.30;;;;;;4941768;28;20024;-74
2022/11/02 06:42:59;;;;;;;6.75;1.40;;;17.90;87.40;;;;;;4928089;29;20496;-72
2022/11/02 06:45:25;;;;;;;7.80;1.15;;;17.80;88.10;;;;;;4928038;29;20517;-72
2022/11/02 06:47:50;;;;;;;7.82;1.52;;;17.80;88.20;;;;;;4944515;29;20405;-73
2022/11/02 06:50:16;;;;;;;9.98;1.30;;;17.80;88.70;;;;;;4928557;29;20031;-73
2022/11/02 06:52:43;;;;;;;14.20;1.60;;;17.80;88.90;;;;;;4911083;29;20051;-75
2022/11/02 06:55:10;;;;;;;6.45;1.48;;;17.80;89.00;;;;;;4923091;29;20063;-75
2022/11/02 06:57:36;;;;;;;9.20;1.42;;;17.80;89.10;;;;;;4923843;29;20036;-73
2022/11/02 07:00:08;;;;;;;6.07;1.10;;;17.80;89.70;;;;;;4926453;29;21114;-74
2022/11/02 07:02:34;;;;;;;4.88;1.10;;;17.80;89.10;;;;;;4932446;29;20038;-73
2022/11/02 07:04:59;;;;;;;6.88;1.10;;;17.80;89.70;;;;;;4926845;29;20031;-73
2022/11/02 07:07:25;;;;;;;5.13;1.30;;;17.80;89.30;;;;;;4928059;29;20044;-74
2022/11/02 07:09:50;;;;;;;6.20;1.30;;;17.80;89.40;;;;;;4927582;29;20023;-74
2022/11/02 07:12:16;;;;;;;5.20;1.27;;;17.80;89.20;;;;;;4927508;29;20301;-74
2022/11/02 07:14:41;;;;;;;5.93;1.20;;;17.80;88.70;;;;;;4927695;29;20031;-74
2022/11/02 07:17:07;;;;;;;6.38;1.38;;;17.80;88.80;;;;;;4926739;29;20035;-74
2022/11/02 07:19:32;;;;;;;6.97;1.33;;;17.90;88.60;;;;;;4928197;29;20038;-74
2022/11/02 07:21:58;;;;;;;8.32;1.38;;;17.80;88.20;;;;;;4928841;29;20035;-74
2022/11/02 07:24:23;;;;;;;7.05;1.40;;;17.90;87.50;;;;;;4927200;29;20082;-73
2022/11/02 07:26:49;;;;;;;8.50;1.15;;;17.90;87.50;;;;;;4929375;29;20541;-72
2022/11/02 07:29:16;;;;;;;8.27;1.20;;;17.90;87.30;;;;;;4928122;29;20438;-74
2022/11/02 07:31:42;;;;;;;8.48;1.52;;;17.90;87.40;;;;;;4928776;29;20035;-74
2022/11/02 07:34:07;;;;;;;8.00;1.70;;;18.00;87.40;;;;;;4928630;29;20318;-73
2022/11/02 07:36:33;;;;;;;5.07;1.10;;;18.00;87.80;;;;;;4927318;29;20028;-72
2022/11/02 07:38:58;;;;;;;8.27;1.63;;;17.90;87.00;;;;;;4926903;29;20035;-74
2022/11/02 07:41:24;;;;;;;5.30;1.20;;;18.00;87.00;;;;;;4927161;29;20027;-73
2022/11/02 07:43:50;;;;;;;7.95;1.73;;;18.00;87.00;;;;;;4927267;29;20074;-74
2022/11/02 07:46:15;;;;;;;7.45;1.40;;;18.00;87.00;;;;;;4928593;29;20045;-74
2022/11/02 07:48:41;;;;;;;5.57;1.10;;;18.00;87.10;;;;;;4928467;29;20046;-72
2022/11/02 07:51:07;;;;;;;5.40;1.15;;;18.00;87.10;;;;;;4928305;29;20028;-73
2022/11/02 07:53:33;;;;;;;7.93;1.45;;;18.00;87.30;;;;;;4926230;29;20030;-74
2022/11/02 07:55:59;;;;;;;6.38;1.10;;;18.00;87.50;;;;;;4926928;29;20031;-73
2022/11/02 07:58:25;;;;;;;6.53;1.10;;;18.00;87.60;;;;;;4928291;29;20513;-75
2022/11/02 08:00:53;;;;;;;4.70;0.90;;;18.00;87.50;;;;;;4926760;29;20036;-73
2022/11/02 08:03:19;;;;;;;6.30;1.20;;;18.00;87.40;;;;;;4926579;29;20031;-74
2022/11/02 08:05:44;;;;;;;5.50;1.13;;;18.10;87.50;;;;;;4928226;29;20031;-73
2022/11/02 08:08:18;;;;;;;5.35;1.00;;;18.10;87.20;;;;;;4928241;29;20265;-72
2022/11/02 08:10:45;;;;;;;4.68;1.02;;;18.10;87.30;;;;;;4927646;29;20034;-73
2022/11/02 08:13:13;;;;;;;6.00;1.42;;;18.20;87.30;;;;;;4928196;29;20027;-73
2022/11/02 08:15:39;;;;;;;6.43;1.30;;;18.10;87.20;;;;;;4928039;29;20035;-74
2022/11/02 08:18:19;;;;;;;3.80;1.10;;;18.00;87.40;;;;;;4927862;29;20561;-74
2022/11/02 08:20:46;;;;;;;3.83;1.08;;;18.00;87.50;;;;;;4927486;29;20359;-72
2022/11/02 08:23:13;;;;;;;3.35;1.02;;;18.00;87.80;;;;;;4926810;29;20043;-74
2022/11/02 08:25:39;;;;;;;4.32;1.25;;;18.00;87.80;;;;;;4927487;29;20126;-73
2022/11/02 08:28:06;;;;;;;5.47;1.27;;;18.00;87.80;;;;;;4926605;29;20106;-74
2022/11/02 08:30:32;;;;;;;3.58;1.20;;;18.00;88.00;;;;;;4925869;29;20437;-73
2022/11/02 08:33:04;;;;;;;7.20;1.33;;;17.90;88.20;;;;;;4910582;29;20178;-75
2022/11/02 08:35:29;;;;;;;5.82;1.15;;;17.90;88.30;;;;;;4926176;29;20042;-73
2022/11/02 08:37:56;;;;;;;5.60;1.50;;;18.00;89.00;;;;;;4928084;29;20035;-74
2022/11/02 08:40:21;;;;;;;3.10;0.88;;;17.90;88.40;;;;;;4925887;29;20082;-74
2022/11/02 08:42:47;;;;;;;5.25;0.90;;;17.90;88.50;;;;;;4927654;29;20031;-74
2022/11/02 08:45:13;;;;;;;4.50;1.10;;;18.10;88.30;;;;;;4927405;29;20038;-74
2022/11/02 08:47:42;;;;;;;4.00;1.20;;;18.00;88.10;;;;;;4927455;29;20024;-74
2022/11/02 08:50:08;;;;;;;4.38;1.20;;;18.10;88.00;;;;;;4925632;29;20321;-73
2022/11/02 08:52:36;;;;;;;4.55;1.10;;;18.10;87.90;;;;;;4926507;29;20058;-73
2022/11/02 08:55:01;;;;;;;4.32;0.90;;;18.10;87.90;;;;;;4927365;29;20774;-73
2022/11/02 08:57:27;;;;;;;4.95;1.20;;;18.10;87.90;;;;;;4926175;29;20059;-73
2022/11/02 08:59:52;;;;;;;4.13;1.02;;;18.10;88.00;;;;;;4926894;29;20046;-74
2022/11/02 09:02:18;;;;;;;4.03;0.90;;;18.10;88.10;;;;;;4910185;29;20036;-73
2022/11/02 09:04:43;;;;;;;5.03;1.00;;;18.10;88.10;;;;;;4930067;29;20032;-73
2022/11/02 09:07:09;;;;;;;2.75;0.90;;;18.10;88.10;;;;;;4931316;29;20490;-73
2022/11/02 09:09:34;;;;;;;3.97;0.90;;;18.10;88.20;;;;;;4930761;29;20074;-74
2022/11/02 09:12:00;;;;;;;2.72;1.00;;;18.10;88.20;;;;;;4929940;29;20038;-73
2022/11/02 09:14:26;;;;;;;3.22;1.00;;;18.10;87.90;;;;;;4930056;29;20192;-74
2022/11/02 09:16:51;;;;;;;4.05;1.10;;;18.20;87.90;;;;;;4929848;29;20059;-72
2022/11/02 09:19:17;;;;;;;2.45;1.00;;;18.20;87.70;;;;;;4930897;29;20059;-73
2022/11/02 09:21:42;;;;;;;4.88;1.10;;;18.20;87.70;;;;;;4929892;29;20028;-73
2022/11/02 09:24:08;;;;;;;4.88;1.20;;;18.20;87.60;;;;;;4929898;29;20027;-73
2022/11/02 09:26:34;;;;;;;3.92;0.85;;;18.20;87.60;;;;;;4931215;29;20562;-74
2022/11/02 09:28:59;;;;;;;3.30;0.90;;;18.20;87.70;;;;;;4913954;29;20032;-73
2022/11/02 09:31:27;;;;;;;2.70;0.90;;;18.20;87.70;;;;;;4930332;29;20482;-73
2022/11/02 09:33:52;;;;;;;3.85;0.80;;;18.30;87.70;;;;;;4929740;29;20059;-73
2022/11/02 09:36:18;;;;;;;3.25;1.13;;;18.20;87.70;;;;;;4930542;29;20457;-75
2022/11/02 09:38:43;;;;;;;3.47;1.20;;;18.20;87.70;;;;;;4930849;29;20028;-74
2022/11/02 09:41:31;;;;;;;3.30;0.90;;;18.30;87.40;;;;;;4928840;29;20040;-74
2022/11/02 09:44:27;;;;;;;3.92;0.80;;;18.30;87.40;;;;;;4930779;29;20039;-74
2022/11/02 09:46:53;;;;;;;2.92;0.90;;;18.30;87.10;;;;;;4929213;29;20063;-73
2022/11/02 09:49:24;;;;;;;3.05;1.02;;;18.30;87.20;;;;;;4930065;29;20268;-73
2022/11/02 09:51:52;;;;;;;2.92;0.90;;;18.30;87.00;;;;;;4929285;29;20035;-74
2022/11/02 09:54:46;;;;;;;3.13;1.00;;;18.40;87.10;;;;;;4930440;29;20043;-75
2022/11/02 09:57:19;;;;;;;3.53;0.90;;;18.40;87.00;;;;;;4928931;29;20023;-74
2022/11/02 09:59:45;;;;;;;3.05;0.80;;;18.40;87.00;;;;;;4930068;29;20028;-72
2022/11/02 10:02:49;;;;;;;1.98;0.77;;;18.30;87.00;;;;;;4930325;29;20079;-72
2022/11/02 10:05:38;;;;;;;2.35;1.00;;;18.40;87.30;;;;;;4926378;29;20417;-73
2022/11/02 10:08:14;;;;;;;3.20;0.90;;;18.30;87.30;;;;;;4893779;29;20043;-73
2022/11/02 10:10:58;;;;;;;2.92;0.90;;;18.40;87.30;;;;;;4912000;29;20026;-74
2022/11/02 10:13:48;;;;;;;3.25;0.95;;;18.40;87.10;;;;;;4929465;29;20026;-73
2022/11/02 10:16:25;;;;;;;2.90;0.88;;;18.40;87.20;;;;;;4911748;29;20035;-73
2022/11/02 10:18:53;;;;;;;1.90;0.80;;;18.40;87.20;;;;;;4929724;29;20433;-73
2022/11/02 10:21:22;;;;;;;3.13;0.90;;;18.40;87.00;;;;;;4929566;29;20028;-74
2022/11/02 10:23:53;;;;;;;2.72;0.90;;;18.50;86.90;;;;;;4929846;29;20087;-74
2022/11/02 10:26:27;;;;;;;2.97;0.80;;;18.50;86.70;;;;;;4930024;29;20063;-74
2022/11/02 10:29:12;;;;;;;2.65;0.95;;;18.60;86.40;;;;;;4912970;29;20569;-73
2022/11/02 10:31:38;;;;;;;3.47;0.90;;;18.60;86.20;;;;;;4929689;29;20042;-73
2022/11/02 10:34:24;;;;;;;2.58;0.80;;;18.70;86.20;;;;;;4929494;29;20312;-73
2022/11/02 10:37:00;;;;;;;2.30;0.60;;;18.60;86.00;;;;;;4929918;29;20020;-74
2022/11/02 10:39:39;;;;;;;3.50;0.80;;;18.60;86.00;;;;;;4929205;29;20490;-73
2022/11/02 10:42:29;;;;;;;2.80;0.90;;;18.70;86.00;;;;;;4929523;29;20043;-74
2022/11/02 10:45:00;;;;;;;2.70;0.88;;;18.60;86.00;;;;;;4912401;29;20573;-73
2022/11/02 10:47:29;;;;;;;;;;;18.60;86.20;;;;;;4930017;29;20672;-74
2022/11/02 10:50:11;;;;;;;2.55;0.90;;;18.60;86.20;;;;;;4929032;29;19910;-73
2022/11/02 10:52:40;;;;;;;2.35;0.80;;;18.60;86.30;;;;;;4929137;29;20036;-73
2022/11/02 10:55:11;;;;;;;4.20;1.00;;;18.60;86.40;;;;;;4929395;29;20027;-74
2022/11/02 10:57:38;;;;;;;;;;;18.60;86.50;;;;;;4929885;29;20044;-73
2022/11/02 11:00:28;;;;;;;2.50;1.00;;;18.50;86.50;;;;;;4928941;29;19917;-74
2022/11/02 11:03:04;;;;;;;;;;;18.60;86.50;;;;;;4924708;29;20510;-73
2022/11/02 11:05:30;;;;;;;3.22;0.90;;;18.60;86.70;;;;;;4929014;29;20469;-75
2022/11/02 11:07:56;;;;;;;2.72;0.95;;;18.60;86.70;;;;;;4912175;29;20040;-73
2022/11/02 11:10:23;;;;;;;2.53;0.80;;;18.60;86.60;;;;;;4928700;29;20043;-74
2022/11/02 11:12:49;;;;;;;3.47;0.93;;;18.60;86.40;;;;;;4911953;29;20091;-74
2022/11/02 11:15:23;;;;;;;3.10;1.10;;;18.70;86.90;;;;;;4928899;29;20032;-73
2022/11/02 11:17:50;;;;;;;2.33;1.10;;;18.60;86.20;;;;;;4929014;29;20039;-73
2022/11/02 11:20:36;;;;;;;2.42;0.80;;;18.70;86.20;;;;;;4928421;29;20036;-74
2022/11/02 11:23:09;;;;;;;3.47;0.90;;;18.70;86.10;;;;;;4928745;29;20075;-74
2022/11/02 11:25:34;;;;;;;2.83;1.00;;;18.70;86.20;;;;;;4928450;29;20028;-73
2022/11/02 11:28:00;;;;;;;3.92;0.85;;;18.70;86.30;;;;;;4928289;29;20024;-72
2022/11/02 11:30:29;;;;;;;4.55;1.33;;;18.60;86.40;;;;;;4928058;29;20032;-74
2022/11/02 11:32:56;;;;;;;2.75;0.80;;;18.60;86.40;;;;;;4912039;29;20122;-73
2022/11/02 11:35:24;;;;;;;2.67;0.90;;;18.60;86.60;;;;;;4928616;29;20035;-73
2022/11/02 11:37:59;;;;;;;2.65;0.70;;;18.60;86.70;;;;;;4911537;29;20126;-73
2022/11/02 11:40:29;;;;;;;3.25;0.93;;;18.50;86.70;;;;;;4928059;29;20095;-73
2022/11/02 11:42:56;;;;;;;3.07;0.90;;;18.50;86.90;;;;;;4928765;29;20047;-73
2022/11/02 11:45:25;;;;;;;1.92;0.73;;;18.60;86.90;;;;;;4928124;29;20035;-73
2022/11/02 11:47:58;;;;;;;1.67;0.60;;;18.60;87.00;;;;;;4928039;29;20093;-76
2022/11/02 14:17:20;;;;;;;1.33;0.70;;;18.30;87.70;;;;;;5050033;28;20741;-78
2022/11/02 14:19:45;;;;;;;1.27;0.68;;;18.30;87.60;;;;;;5046876;28;20087;-78
2022/11/02 14:22:14;;;;;;;2.25;0.75;;;18.40;87.60;;;;;;5045387;28;20027;-79
2022/11/02 14:24:39;;;;;;;2.47;0.80;;;18.30;87.50;;;;;;5038400;28;20051;-79
2022/11/02 14:27:11;;;;;;;2.08;0.60;;;18.40;87.50;;;;;;5050179;28;20049;-79
2022/11/02 14:29:45;;;;;;;1.48;0.68;;;18.40;87.50;;;;;;5044799;28;20484;-79
2022/11/02 14:32:20;;;;;;;1.40;0.70;;;18.40;87.40;;;;;;5054123;28;20035;-78
2022/11/02 14:35:04;;;;;;;2.00;0.80;;;18.40;87.90;;;;;;5055291;28;20031;-78
2022/11/02 14:37:38;;;;;;;2.97;0.60;;;18.40;87.50;;;;;;5062935;28;20027;-78
2022/11/02 14:40:06;;;;;;;2.22;0.80;;;18.30;87.50;;;;;;5061160;28;20025;-79
2022/11/02 14:43:10;;;;;;;1.50;0.60;;;18.30;87.60;;;;;;5063435;28;20021;-78
2022/11/02 14:46:06;;;;;;;1.63;0.70;;;18.30;87.80;;;;;;5062181;28;20029;-79
2022/11/02 14:48:47;;;;;;;2.03;0.77;;;18.30;87.90;;;;;;5061920;28;20025;-77
2022/11/02 14:51:26;;;;;;;2.38;0.80;;;18.20;88.10;;;;;;5062957;28;20028;-77
2022/11/02 14:53:58;;;;;;;2.00;0.60;;;18.20;88.20;;;;;;5061166;28;20514;-79
2022/11/02 14:56:43;;;;;;;1.83;0.60;;;18.20;88.30;;;;;;5062514;28;20048;-78
2022/11/02 14:59:30;;;;;;;1.15;0.50;;;18.20;88.40;;;;;;5062401;28;20029;-78
2022/11/02 15:02:19;;;;;;;2.20;0.70;;;18.20;88.50;;;;;;5066252;28;20025;-79
2022/11/02 15:04:49;;;;;;;2.30;0.90;;;18.10;88.50;;;;;;5066813;28;20020;-78
2022/11/02 15:07:21;;;;;;;1.83;0.60;;;18.10;88.60;;;;;;5052761;28;20026;-78
2022/11/02 15:09:58;;;;;;;2.17;0.70;;;18.10;88.70;;;;;;5046944;28;20021;-81
2022/11/02 15:12:37;;;;;;;1.35;0.57;;;18.10;88.60;;;;;;5045639;28;20062;-77
2022/11/02 15:15:46;;;;;;;2.22;0.80;;;18.10;88.50;;;;;;5064765;23;20044;-76
2022/11/02 15:18:41;;;;;;;;;;;;;;;;;;;;;
2022/11/02 15:24:55;;;;;;;1.48;0.50;;;18.20;88.40;;;;;;5071286;28;20069;-78
2022/11/02 15:27:40;;;;;;;1.77;0.60;;;19.00;88.80;;;;;;5054512;28;20484;-78
2022/11/02 15:30:29;;;;;;;2.13;0.60;;;18.40;88.70;;;;;;5054063;28;20036;-78
2022/11/02 15:36:03;;;;;;;2.08;0.70;;;18.10;88.30;;;;;;5153398;27;20135;-80
2022/11/02 15:38:34;;;;;;;1.25;0.70;;;18.10;88.90;;;;;;5126328;27;20023;-82
2022/11/02 15:41:05;;;;;;;2.60;0.70;;;18.20;89.00;;;;;;5130164;27;20019;-78
2022/11/02 15:43:54;;;;;;;0.98;0.50;;;18.10;89.00;;;;;;5148191;27;20384;-78
2022/11/02 15:46:45;;;;;;;2.05;0.88;;;18.10;89.20;;;;;;5127705;27;20031;-78
2022/11/02 15:49:49;;;;;;;2.22;0.60;;;18.00;89.20;;;;;;5146154;27;20772;-79
2022/11/02 15:52:38;;;;;;;1.38;0.57;;;18.00;89.20;;;;;;5106469;27;20039;-78